首页
METAR-TAF:

METAR-TAF

机场 :

Naval Station Mayport (Adm. David L. McDonald Field)

Mayport, 佛罗里达州, 美国

纬度: 30-23-45N, 经度: 081-25-21W, 海拔: 5米

当前天气观测

该预报发布于19分钟前的13:52 UTC
风速15节,风向北转东北
温度 28°C
湿度 79%
气压 1016 hPa
能見度: 16.1公里
散云层高于1500英尺
多云层高于2500英尺
多云层高于25000英尺

METAR: KNRB 251352Z 03015KT 10SM SCT015 BKN025 BKN250 28/24 A3000 RMK AO2 RAE1259 SLP157 P0000 T02830244

时间: 10:11 (14:11 UTC)

预报

预报有效从25日的 07点(UTC)到 26日的 07点(UTC)
风速6节,风向多变
散云层高于1000英尺
散云层高于3000英尺
散云层高于25000英尺
短暂存在
从 25日的 09点(UTC)到 25日的 12点(UTC)
多云层高于2000英尺
成为
从 25日的 14点(UTC)到 25日的 16点(UTC)
风速12节,风向东北
能见度10公里或以上
散云层高于1000英尺, 积雨云.
多云层高于3500英尺
多云层高于6000英尺
阴天层高于18000英尺
附近有雷暴
短暂存在
从 25日的 17点(UTC)到 25日的 20点(UTC)
风速15节,风向多变,有时为25节阵风
能見度: 4800
散云层高于1000英尺, 积雨云.
多云层高于2000英尺
阴天层高于5000英尺
雷暴, 雨
成为
从 26日的 04点(UTC)到 26日的 06点(UTC)
风速10节,风向东北
能見度: 2511
散云层高于2000英尺
散云层高于12000英尺
多云层高于16000英尺

TAF: KNRB 2507/2607 VRB06KT SCT010 SCT030 SCT250 QNH2988INS TEMPO 2509/2512 BKN020 BECMG 2514/2516 04012KT 9999 VCTS SCT010CB BKN035 BKN060 OVC180 QNH2986INS TEMPO 2517/2520 VRB15G25KT 4800 TSRA SCT010CB BKN020 OVC050 BECMG 2604/2606 05010KT 9999 NSW SCT020 SCT120 BKN160 QNH2996INS AUTOMATED SENSOR METWATCH 2507 TIL 2511 T26/2510Z T30/2520Z FN00194

超过4000个机场的气象观测和天气预报(METAR&TAF报告)。

可查询的气象台以黄色和红色小点在地图上表示。

将鼠标移到小点上方,可查看气象台名称。

然后点击查看天气观测和预报。

如需切换地图:点击带黑十字的绿色按钮放大地图;点击带横线的绿色按钮缩小地图;或者点击绿色箭头查看邻近地区的地图。


METAR-TAF: